createdAt,value
2017-01-11T00:00:32.323Z,94.93
2017-01-11T00:01:41.013Z,95.03
2017-01-11T00:02:49.705Z,94.84
2017-01-11T00:03:58.391Z,95.26
2017-01-11T00:05:07.079Z,95.31
2017-01-11T00:06:15.769Z,95.36
2017-01-11T00:07:24.462Z,95.12
2017-01-11T00:08:33.149Z,95.6
2017-01-11T00:09:41.842Z,95.45
2017-01-11T00:10:50.533Z,95.26
2017-01-11T00:11:59.228Z,95.6
2017-01-11T00:13:07.921Z,95.6
2017-01-11T00:14:16.618Z,95.07
2017-01-11T00:15:25.306Z,95.17
2017-01-11T00:16:33.995Z,95.26
2017-01-11T00:17:42.689Z,95.07
2017-01-11T00:18:51.382Z,95.26
2017-01-11T00:20:00.070Z,95.07
2017-01-11T00:21:08.759Z,95.26
2017-01-11T00:22:17.446Z,95.26
2017-01-11T00:23:26.142Z,95.26
2017-01-11T00:24:34.830Z,95.26
2017-01-11T00:25:43.519Z,95.17
2017-01-11T00:26:52.204Z,95.55
2017-01-11T00:28:00.889Z,95.26
2017-01-11T00:29:09.582Z,95.55
2017-01-11T00:30:18.279Z,95.36
2017-01-11T00:31:26.984Z,95.07
2017-01-11T00:32:35.681Z,95.26
2017-01-11T00:33:44.376Z,95.36
2017-01-11T00:34:53.063Z,94.7
2017-01-11T00:36:01.756Z,94.32
2017-01-11T00:37:10.443Z,94.6
2017-01-11T00:38:19.135Z,94.04
2017-01-11T00:39:27.820Z,93.94
2017-01-11T00:40:36.511Z,93.75
2017-01-11T00:41:45.200Z,93.75
2017-01-11T00:42:53.895Z,94.04
2017-01-11T00:44:02.583Z,93.65
2017-01-11T00:45:11.672Z,93.56
2017-01-11T00:46:20.361Z,94.23
2017-01-11T00:47:29.070Z,94.13
2017-01-11T00:48:37.879Z,94.42
2017-01-11T00:49:46.565Z,94.13
2017-01-11T00:50:55.261Z,94.23
2017-01-11T00:52:03.951Z,94.23
2017-01-11T00:53:12.638Z,94.13
2017-01-11T00:54:21.325Z,94.04
2017-01-11T00:55:30.020Z,94.04
2017-01-11T00:56:38.712Z,94.13
2017-01-11T00:57:47.403Z,94.04
2017-01-11T00:58:56.092Z,94.32
2017-01-11T01:00:04.784Z,93.94
2017-01-11T01:01:13.475Z,93.94
2017-01-11T01:02:22.178Z,94.04
2017-01-11T01:03:30.865Z,94.13
2017-01-11T01:04:39.553Z,94.23
2017-01-11T01:05:48.244Z,94.42
2017-01-11T01:06:56.933Z,93.94
2017-01-11T01:08:05.624Z,94.42
2017-01-11T01:09:14.342Z,94.04
2017-01-11T01:10:23.032Z,93.84
2017-01-11T01:11:31.743Z,93.94
2017-01-11T01:12:40.436Z,93.94
2017-01-11T01:13:49.137Z,93.65
2017-01-11T01:14:57.830Z,93.94
2017-01-11T01:16:06.521Z,93.75
2017-01-11T01:17:15.214Z,93.94
2017-01-11T01:18:23.904Z,93.18
2017-01-11T01:19:32.593Z,93.18
2017-01-11T01:20:41.284Z,93.08
2017-01-11T01:21:49.975Z,93.18
2017-01-11T01:22:58.660Z,92.9
2017-01-11T01:24:07.347Z,92.99
2017-01-11T01:25:16.037Z,93.18
2017-01-11T01:26:24.725Z,92.9
2017-01-11T01:27:33.418Z,93.08
2017-01-11T01:28:42.108Z,93.08
2017-01-11T01:29:50.796Z,93.27
2017-01-11T01:30:59.487Z,93.75
2017-01-11T01:32:08.177Z,93.27
2017-01-11T01:33:16.866Z,93.27
2017-01-11T01:34:25.555Z,93.46
2017-01-11T01:35:34.250Z,93.65
2017-01-11T01:36:42.948Z,93.27
2017-01-11T01:37:51.635Z,93.46
2017-01-11T01:39:00.327Z,93.46
2017-01-11T01:40:09.039Z,94.04
2017-01-11T01:41:17.727Z,93.65
2017-01-11T01:42:26.414Z,93.08
2017-01-11T01:43:35.101Z,93.18
2017-01-11T01:44:43.789Z,92.8
2017-01-11T01:45:52.477Z,92.61
2017-01-11T01:47:01.163Z,92.8
2017-01-11T01:48:09.852Z,92.61
2017-01-11T01:49:18.538Z,92.52
2017-01-11T01:50:27.225Z,92.42
2017-01-11T01:51:35.919Z,92.14
2017-01-11T01:52:44.620Z,92.42
2017-01-11T01:53:53.313Z,91.76
2017-01-11T01:55:02.007Z,91.95
2017-01-11T01:56:10.696Z,91.57
2017-01-11T01:57:19.383Z,92.52
2017-01-11T01:58:28.076Z,92.42
2017-01-11T01:59:36.763Z,91.47
2017-01-11T02:00:45.457Z,91.76
2017-01-11T02:01:54.146Z,91.47
2017-01-11T02:03:02.840Z,91.66
2017-01-11T02:04:11.532Z,91.47
2017-01-11T02:05:20.250Z,91.47
2017-01-11T02:06:28.942Z,91.57
2017-01-11T02:07:37.638Z,91.38
2017-01-11T02:08:46.328Z,91.57
2017-01-11T02:09:55.043Z,91.38
2017-01-11T02:11:03.733Z,91.19
2017-01-11T02:12:12.419Z,91.38
2017-01-11T02:13:21.115Z,91.38
2017-01-11T02:14:29.807Z,91.38
2017-01-11T02:15:38.520Z,91.38
2017-01-11T02:16:47.235Z,91.47
2017-01-11T02:17:55.940Z,91.38
2017-01-11T02:19:04.631Z,91.47
2017-01-11T02:20:13.321Z,91.38
2017-01-11T02:21:22.009Z,91.47
2017-01-11T02:22:30.699Z,91.76
2017-01-11T02:23:39.391Z,91.47
2017-01-11T02:24:48.083Z,91.85
2017-01-11T02:25:56.828Z,91.95
2017-01-11T02:27:05.518Z,91.57
2017-01-11T02:28:14.204Z,92.04
2017-01-11T02:29:22.889Z,91.66
2017-01-11T02:30:31.574Z,91.66
2017-01-11T02:31:40.267Z,91.95
2017-01-11T02:32:48.955Z,91.47
2017-01-11T02:33:57.657Z,91.47
2017-01-11T02:35:06.348Z,90.72
2017-01-11T02:36:15.039Z,91.66
2017-01-11T02:37:23.729Z,91.38
2017-01-11T02:38:32.419Z,91.66
2017-01-11T02:39:41.109Z,91.66
2017-01-11T02:40:49.815Z,91.76
2017-01-11T02:41:58.511Z,91.66
2017-01-11T02:43:07.622Z,91.66
2017-01-11T02:44:16.313Z,91.76
2017-01-11T02:45:25.004Z,91.76
2017-01-11T02:46:33.693Z,91.76
2017-01-11T02:47:42.383Z,92.42
2017-01-11T02:48:51.077Z,92.04
2017-01-11T02:49:59.764Z,92.71
2017-01-11T02:51:08.463Z,92.52
2017-01-11T02:52:17.158Z,91.85
2017-01-11T02:53:25.848Z,92.33
2017-01-11T02:54:34.532Z,91.95
2017-01-11T02:55:43.220Z,92.52
2017-01-11T02:56:51.915Z,92.14
2017-01-11T02:58:00.602Z,91.66
2017-01-11T02:59:09.290Z,91.57
2017-01-11T03:00:17.979Z,92.04
2017-01-11T03:01:27.073Z,91.85
2017-01-11T03:02:35.759Z,91.66
2017-01-11T03:03:44.450Z,91.95
2017-01-11T03:04:53.143Z,91.76
2017-01-11T03:06:01.830Z,91.66
2017-01-11T03:07:10.523Z,91.57
2017-01-11T03:08:19.208Z,91.66
2017-01-11T03:09:27.891Z,91.66
2017-01-11T03:10:36.582Z,92.04
2017-01-11T03:11:45.272Z,91.85
2017-01-11T03:12:53.960Z,91.76
2017-01-11T03:14:02.651Z,91.47
2017-01-11T03:15:11.349Z,91.28
2017-01-11T03:16:20.037Z,91.57
2017-01-11T03:17:28.729Z,91.28
2017-01-11T03:18:37.421Z,91.66
2017-01-11T03:19:46.110Z,90.81
2017-01-11T03:20:54.797Z,91
2017-01-11T03:22:03.495Z,90.62
2017-01-11T03:23:12.186Z,90.62
2017-01-11T03:24:20.872Z,90.43
2017-01-11T03:25:29.561Z,91.19
2017-01-11T03:26:38.253Z,90.72
2017-01-11T03:27:46.939Z,91.19
2017-01-11T03:28:55.634Z,91
2017-01-11T03:30:04.324Z,90.81
2017-01-11T03:31:13.009Z,91
2017-01-11T03:32:21.727Z,90.91
2017-01-11T03:33:30.416Z,91.38
2017-01-11T03:34:39.105Z,90.72
2017-01-11T03:35:47.794Z,91
2017-01-11T03:36:56.489Z,91.38
2017-01-11T03:38:05.180Z,91.57
2017-01-11T03:39:13.873Z,91.19
2017-01-11T03:40:22.560Z,91.38
2017-01-11T03:41:31.251Z,91.76
2017-01-11T03:42:39.970Z,91.38
2017-01-11T03:43:48.684Z,91.95
2017-01-11T03:44:57.377Z,91.66
2017-01-11T03:46:06.071Z,91.95
2017-01-11T03:47:14.764Z,91.76
2017-01-11T03:48:23.452Z,92.04
2017-01-11T03:49:32.138Z,91.95
2017-01-11T03:50:40.827Z,92.04
2017-01-11T03:51:49.516Z,92.04
2017-01-11T03:52:58.202Z,91.66
2017-01-11T03:54:06.914Z,91.95
2017-01-11T03:55:15.615Z,91.85
2017-01-11T03:56:24.308Z,91.76
2017-01-11T03:57:33.003Z,91.85
2017-01-11T03:58:41.695Z,91.95
2017-01-11T03:59:50.400Z,91.76
2017-01-11T04:00:59.092Z,91.57
2017-01-11T04:02:07.781Z,91.47
2017-01-11T04:03:16.471Z,91.66
2017-01-11T04:04:25.166Z,91.85
2017-01-11T04:05:33.854Z,91.57
2017-01-11T04:06:42.549Z,91.47
2017-01-11T04:07:51.249Z,92.33
2017-01-11T04:08:59.941Z,92.33
2017-01-11T04:10:08.630Z,91.95
2017-01-11T04:11:17.318Z,92.52
2017-01-11T04:12:26.010Z,92.61
2017-01-11T04:13:34.703Z,92.61
2017-01-11T04:14:43.399Z,93.18
2017-01-11T04:15:52.099Z,93.18
2017-01-11T04:17:00.814Z,93.18
2017-01-11T04:18:09.510Z,93.08
2017-01-11T04:19:18.204Z,93.08
2017-01-11T04:20:26.896Z,92.99
2017-01-11T04:21:35.584Z,93.27
2017-01-11T04:22:44.276Z,93.37
2017-01-11T04:23:52.966Z,93.75
2017-01-11T04:25:01.658Z,94.04
2017-01-11T04:26:10.350Z,93.94
2017-01-11T04:27:19.038Z,93.75
2017-01-11T04:28:27.725Z,93.84
2017-01-11T04:29:36.414Z,94.23
2017-01-11T04:30:45.109Z,93.84
2017-01-11T04:31:53.805Z,93.94
2017-01-11T04:33:02.496Z,93.94
2017-01-11T04:34:11.183Z,93.75
2017-01-11T04:35:19.874Z,93.84
2017-01-11T04:36:28.566Z,93.84
2017-01-11T04:37:37.255Z,94.04
2017-01-11T04:38:45.940Z,94.13
2017-01-11T04:39:54.638Z,94.89
2017-01-11T04:41:03.327Z,94.98
2017-01-11T04:42:12.015Z,94.6
2017-01-11T04:43:20.707Z,95.26
2017-01-11T04:44:29.399Z,95.07
2017-01-11T04:45:38.091Z,94.98
2017-01-11T04:46:46.797Z,95.17
2017-01-11T04:47:55.489Z,95.07
2017-01-11T04:49:04.205Z,95.26
2017-01-11T04:50:12.889Z,95.26
2017-01-11T04:51:21.577Z,95.26
2017-01-11T04:52:30.266Z,94.89
2017-01-11T04:53:38.956Z,95.55
2017-01-11T04:54:47.650Z,95.36
2017-01-11T04:55:56.340Z,94.89
2017-01-11T04:57:05.027Z,95.45
2017-01-11T04:58:13.721Z,95.55
2017-01-11T04:59:22.413Z,95.07
2017-01-11T05:00:31.108Z,95.74
2017-01-11T05:01:39.795Z,96.12
2017-01-11T05:02:48.480Z,96.03
2017-01-11T05:03:57.169Z,95.65
2017-01-11T05:05:05.868Z,97.26
2017-01-11T05:06:14.560Z,97.16
2017-01-11T05:07:23.248Z,97.16
2017-01-11T05:08:31.934Z,97.73
2017-01-11T05:09:40.632Z,97.64
2017-01-11T05:10:49.320Z,98.02
2017-01-11T05:11:58.010Z,97.92
2017-01-11T05:13:06.702Z,98.58
2017-01-11T05:14:15.396Z,98.25
2017-01-11T05:15:24.085Z,98.3
2017-01-11T05:16:32.773Z,98.39
2017-01-11T05:17:41.461Z,98.3
2017-01-11T05:18:50.147Z,98.3
2017-01-11T05:19:58.838Z,98.35
2017-01-11T05:21:07.533Z,97.87
2017-01-11T05:22:16.230Z,98.54
2017-01-11T05:23:24.924Z,98.35
2017-01-11T05:24:33.614Z,98.54
2017-01-11T05:25:42.307Z,98.54
2017-01-11T05:26:51.005Z,98.91
2017-01-11T05:27:59.691Z,99.1
2017-01-11T05:29:08.380Z,98.72
2017-01-11T05:30:17.072Z,98.63
2017-01-11T05:31:25.765Z,98.91
2017-01-11T05:32:34.454Z,98.82
2017-01-11T05:33:43.143Z,99.29
2017-01-11T05:34:51.826Z,99.01
2017-01-11T05:36:00.518Z,98.72
2017-01-11T05:37:09.211Z,98.82
2017-01-11T05:38:17.893Z,98.82
2017-01-11T05:39:26.583Z,98.82
2017-01-11T05:40:35.275Z,98.54
2017-01-11T05:41:43.965Z,97.87
2017-01-11T05:42:53.052Z,98.06
2017-01-11T05:44:01.742Z,98.44
2017-01-11T05:45:10.429Z,98.16
2017-01-11T05:46:19.121Z,97.68
2017-01-11T05:47:27.808Z,97.68
2017-01-11T05:48:36.498Z,97.68
2017-01-11T05:49:45.184Z,97.49
2017-01-11T05:50:53.875Z,97.87
2017-01-11T05:52:02.565Z,97.87
2017-01-11T05:53:11.254Z,97.68
2017-01-11T05:54:19.943Z,97.59
2017-01-11T05:55:28.638Z,97.59
2017-01-11T05:56:37.334Z,97.49
2017-01-11T05:57:46.445Z,97.59
2017-01-11T05:58:55.133Z,97.68
2017-01-11T06:00:03.828Z,98.25
2017-01-11T06:01:12.522Z,98.44
2017-01-11T06:02:21.211Z,98.35
2017-01-11T06:03:29.903Z,98.25
2017-01-11T06:04:38.602Z,98.44
2017-01-11T06:05:47.317Z,98.25
2017-01-11T06:06:56.005Z,97.49
2017-01-11T06:08:04.703Z,98.44
2017-01-11T06:09:13.388Z,98.35
2017-01-11T06:10:22.072Z,98.25
2017-01-11T06:11:30.764Z,98.16
2017-01-11T06:12:39.454Z,98.25
2017-01-11T06:13:48.137Z,98.35
2017-01-11T06:14:56.873Z,98.25
2017-01-11T06:16:05.568Z,98.16
2017-01-11T06:17:14.257Z,98.16
2017-01-11T06:18:22.949Z,98.25
2017-01-11T06:19:31.636Z,98.54
2017-01-11T06:20:40.324Z,98.54
2017-01-11T06:21:49.015Z,98.16
2017-01-11T06:22:57.708Z,99.1
2017-01-11T06:24:06.792Z,98.82
2017-01-11T06:25:15.479Z,98.54
2017-01-11T06:26:24.167Z,98.54
2017-01-11T06:27:32.892Z,98.63
2017-01-11T06:28:41.584Z,99.01
2017-01-11T06:29:50.297Z,98.82
2017-01-11T06:30:58.985Z,99.01
2017-01-11T06:32:07.672Z,98.63
2017-01-11T06:33:16.366Z,98.72
2017-01-11T06:34:25.452Z,98.72
2017-01-11T06:35:34.139Z,98.16
2017-01-11T06:36:42.828Z,98.25
2017-01-11T06:37:51.521Z,98.54
2017-01-11T06:39:00.219Z,98.63
2017-01-11T06:40:08.909Z,98.35
2017-01-11T06:41:17.596Z,98.25
2017-01-11T06:42:26.297Z,98.06
2017-01-11T06:43:34.985Z,97.87
2017-01-11T06:44:43.676Z,97.49
2017-01-11T06:45:52.361Z,97.59
2017-01-11T06:47:01.057Z,97.59
2017-01-11T06:48:09.751Z,97.11
2017-01-11T06:49:18.471Z,97.68
2017-01-11T06:50:27.159Z,97.02
2017-01-11T06:51:35.847Z,97.02
2017-01-11T06:52:44.535Z,97.49
2017-01-11T06:53:53.221Z,96.73
2017-01-11T06:55:01.912Z,96.92
2017-01-11T06:56:10.609Z,96.83
2017-01-11T06:57:19.299Z,96.64
2017-01-11T06:58:27.986Z,97.21
2017-01-11T06:59:36.675Z,96.92
2017-01-11T07:00:45.376Z,97.68
2017-01-11T07:01:54.070Z,97.02
2017-01-11T07:03:02.767Z,97.68
2017-01-11T07:04:11.457Z,96.92
2017-01-11T07:05:20.148Z,96.55
2017-01-11T07:06:28.915Z,96.36
2017-01-11T07:07:37.610Z,96.73
2017-01-11T07:08:46.303Z,96.83
2017-01-11T07:09:54.993Z,96.55
2017-01-11T07:11:03.689Z,96.55
2017-01-11T07:12:12.385Z,96.73
2017-01-11T07:13:34.605Z,96.59
2017-01-11T07:14:43.313Z,96.55
2017-01-11T07:15:52.003Z,95.79
2017-01-11T07:17:00.700Z,96.26
2017-01-11T07:18:09.391Z,96.64
2017-01-11T07:19:18.084Z,96.41
2017-01-11T07:20:26.774Z,96.55
2017-01-11T07:21:35.470Z,96.5
2017-01-11T07:22:44.186Z,96.26
2017-01-11T07:23:53.287Z,95.98
2017-01-11T07:25:02.026Z,96.5
2017-01-11T07:26:11.114Z,96.41
2017-01-11T07:27:19.804Z,96.36
2017-01-11T07:28:28.493Z,96.78
2017-01-11T07:29:37.183Z,97.4
2017-01-11T07:30:45.872Z,96.73
2017-01-11T07:31:54.598Z,96.92
2017-01-11T07:33:03.289Z,96.92
2017-01-11T07:34:11.983Z,96.73
2017-01-11T07:35:20.668Z,96.73
2017-01-11T07:36:29.363Z,96.36
2017-01-11T07:37:38.054Z,96.83
2017-01-11T07:38:46.741Z,96.73
2017-01-11T07:39:55.432Z,97.3
2017-01-11T07:41:04.122Z,96.73
2017-01-11T07:42:12.842Z,96.73
2017-01-11T07:43:21.559Z,96.83
2017-01-11T07:44:30.262Z,97.21
2017-01-11T07:45:38.959Z,97.21
2017-01-11T07:46:47.651Z,97.3
2017-01-11T07:47:56.335Z,96.92
2017-01-11T07:49:05.035Z,97.68
2017-01-11T07:50:13.728Z,97.25
2017-01-11T07:51:22.421Z,97.87
2017-01-11T07:52:31.116Z,97.87
2017-01-11T07:53:39.809Z,97.16
2017-01-11T07:54:48.525Z,97.54
2017-01-11T07:55:57.214Z,97.87
2017-01-11T07:57:05.905Z,97.16
2017-01-11T07:58:14.606Z,97.06
2017-01-11T07:59:23.294Z,97.25
2017-01-11T08:00:32.007Z,97.35
2017-01-11T08:01:40.695Z,97.73
2017-01-11T08:02:49.386Z,97.73
2017-01-11T08:03:58.074Z,97.25
2017-01-11T08:05:06.771Z,97.54
2017-01-11T08:06:15.494Z,97.82
2017-01-11T08:07:24.185Z,97.54
2017-01-11T08:08:32.876Z,97.25
2017-01-11T08:09:41.561Z,97.82
2017-01-11T08:10:50.249Z,98.2
2017-01-11T08:11:58.940Z,97.92
2017-01-11T08:13:07.632Z,97.82
2017-01-11T08:14:16.322Z,98.11
2017-01-11T08:15:25.033Z,97.82
2017-01-11T08:16:33.717Z,97.92
2017-01-11T08:17:42.409Z,97.82
2017-01-11T08:18:51.099Z,98.2
2017-01-11T08:19:59.789Z,97.73
2017-01-11T08:21:08.484Z,98.39
2017-01-11T08:22:17.205Z,98.01
2017-01-11T08:23:25.894Z,98.2
2017-01-11T08:24:34.589Z,98.3
2017-01-11T08:25:43.313Z,98.39
2017-01-11T08:26:52.006Z,98.3
2017-01-11T08:28:00.695Z,98.2
2017-01-11T08:29:09.395Z,98.11
2017-01-11T08:30:18.090Z,97.44
2017-01-11T08:31:26.777Z,97.63
2017-01-11T08:32:35.462Z,97.44
2017-01-11T08:33:44.149Z,97.63
2017-01-11T08:34:52.840Z,97.82
2017-01-11T08:36:01.551Z,97.82
2017-01-11T08:37:10.254Z,97.54
2017-01-11T08:38:18.954Z,97.35
2017-01-11T08:39:27.640Z,97.35
2017-01-11T08:40:36.334Z,97.73
2017-01-11T08:41:45.020Z,97.82
2017-01-11T08:42:53.711Z,97.82
2017-01-11T08:44:02.799Z,97.25
2017-01-11T08:45:11.498Z,97.82
2017-01-11T08:46:20.184Z,97.63
2017-01-11T08:47:28.880Z,97.35
2017-01-11T08:48:37.568Z,97.16
2017-01-11T08:49:46.253Z,97.82
2017-01-11T08:50:54.943Z,97.82
2017-01-11T08:52:03.640Z,97.44
2017-01-11T08:53:12.331Z,97.44
2017-01-11T08:54:21.017Z,97.63
2017-01-11T08:55:29.705Z,97.54
2017-01-11T08:56:38.397Z,97.82
2017-01-11T08:57:47.093Z,97.73
2017-01-11T08:58:55.780Z,97.16
2017-01-11T09:00:04.469Z,97.35
2017-01-11T09:01:13.156Z,97.44
2017-01-11T09:02:21.857Z,98.39
2017-01-11T09:03:30.550Z,98.49
2017-01-11T09:04:39.242Z,98.11
2017-01-11T09:05:47.930Z,98.49
2017-01-11T09:06:56.654Z,98.77
2017-01-11T09:08:05.358Z,99.15
2017-01-11T09:09:14.050Z,98.58
2017-01-11T09:10:22.739Z,98.49
2017-01-11T09:11:31.827Z,98.11
2017-01-11T09:12:40.524Z,98.3
2017-01-11T09:13:49.218Z,99.15
2017-01-11T09:14:57.933Z,99.05
2017-01-11T09:16:06.626Z,99.05
2017-01-11T09:17:15.317Z,98.96
2017-01-11T09:18:24.015Z,98.86
2017-01-11T09:19:32.708Z,99.33
2017-01-11T09:20:41.792Z,99.33
2017-01-11T09:21:50.481Z,98.86
2017-01-11T09:22:59.169Z,99.15
2017-01-11T09:24:07.861Z,99.52
2017-01-11T09:25:16.555Z,99.43
2017-01-11T09:26:25.245Z,99.33
2017-01-11T09:27:33.943Z,99.81
2017-01-11T09:28:42.638Z,99.62
2017-01-11T09:29:51.331Z,99.99
2017-01-11T09:31:00.023Z,99.99
2017-01-11T09:32:08.713Z,99.9
2017-01-11T09:33:17.408Z,99.76
2017-01-11T09:34:26.115Z,99.99
2017-01-11T09:35:34.804Z,99.99
2017-01-11T09:36:43.518Z,99.99
2017-01-11T09:37:52.202Z,99.99
2017-01-11T09:39:00.896Z,99.99
2017-01-11T09:40:09.612Z,99.99
2017-01-11T09:41:18.303Z,99.99
2017-01-11T09:42:27.011Z,99.99
2017-01-11T09:43:35.724Z,99.99
2017-01-11T09:44:44.409Z,99.99
2017-01-11T09:45:53.105Z,99.99
2017-01-11T09:47:01.794Z,99.99
2017-01-11T09:48:10.513Z,99.99
2017-01-11T09:49:19.201Z,99.99
2017-01-11T09:50:27.889Z,99.99
2017-01-11T09:51:36.580Z,99.99
2017-01-11T09:52:45.279Z,99.99
2017-01-11T09:53:53.966Z,99.99
2017-01-11T09:55:02.655Z,99.99
2017-01-11T09:56:11.344Z,99.99
2017-01-11T09:57:20.033Z,99.99
2017-01-11T09:58:28.727Z,99.99
2017-01-11T09:59:37.419Z,99.99
2017-01-11T10:00:46.105Z,99.99
2017-01-11T10:01:54.792Z,99.99
2017-01-11T10:03:03.485Z,99.99
2017-01-11T10:04:12.598Z,99.99
2017-01-11T10:05:21.282Z,99.99
2017-01-11T10:06:29.973Z,99.99
2017-01-11T10:07:38.661Z,99.99
2017-01-11T10:08:47.350Z,99.99
2017-01-11T10:09:56.034Z,99.99
2017-01-11T10:11:04.727Z,99.99
2017-01-11T10:12:13.425Z,99.99
2017-01-11T10:13:22.110Z,99.99
2017-01-11T10:14:30.801Z,99.99
2017-01-11T10:15:39.499Z,99.99
2017-01-11T10:16:48.181Z,99.99
2017-01-11T10:17:56.870Z,99.99
2017-01-11T10:19:05.592Z,99.99
2017-01-11T10:20:14.285Z,99.99
2017-01-11T10:21:22.978Z,99.99
2017-01-11T10:22:31.669Z,99.99
2017-01-11T10:23:40.362Z,99.99
2017-01-11T10:24:49.053Z,99.99
2017-01-11T10:25:57.745Z,99.99
2017-01-11T10:27:06.432Z,99.99
2017-01-11T10:28:15.120Z,99.99
2017-01-11T10:29:23.807Z,99.99
2017-01-11T10:30:32.500Z,99.99
2017-01-11T10:31:41.197Z,99.99
2017-01-11T10:32:49.889Z,99.99
2017-01-11T10:33:58.579Z,99.99
2017-01-11T10:35:07.269Z,99.99
2017-01-11T10:36:15.954Z,99.99
2017-01-11T10:37:24.642Z,99.99
2017-01-11T10:38:33.327Z,99.99
2017-01-11T10:39:42.012Z,99.99
2017-01-11T10:40:50.704Z,99.99
2017-01-11T10:41:59.396Z,99.99
2017-01-11T10:43:08.086Z,99.99
2017-01-11T10:44:16.779Z,99.99
2017-01-11T10:45:25.474Z,99.99
2017-01-11T10:46:34.168Z,99.99
2017-01-11T10:47:42.857Z,99.99
2017-01-11T10:48:51.548Z,99.99
2017-01-11T10:50:00.237Z,99.99
2017-01-11T10:51:08.925Z,99.99
2017-01-11T10:52:17.616Z,99.99
2017-01-11T10:53:26.308Z,99.99
2017-01-11T10:54:34.997Z,99.99
2017-01-11T10:55:43.688Z,99.99
2017-01-11T10:56:52.382Z,99.99
2017-01-11T10:58:01.067Z,99.99
2017-01-11T10:59:09.758Z,99.99
2017-01-11T11:00:18.448Z,99.99
2017-01-11T11:01:27.133Z,99.99
2017-01-11T11:02:35.822Z,99.99
2017-01-11T11:03:44.510Z,99.99
2017-01-11T11:04:53.203Z,99.99
2017-01-11T11:06:01.890Z,99.99
2017-01-11T11:07:10.580Z,99.99
2017-01-11T11:08:19.289Z,99.99
2017-01-11T11:09:28.006Z,99.99
2017-01-11T11:10:36.692Z,99.99
2017-01-11T11:11:45.380Z,99.99
2017-01-11T11:12:54.102Z,99.99
2017-01-11T11:14:02.793Z,99.99
2017-01-11T11:15:11.475Z,99.99
2017-01-11T11:16:20.164Z,99.99
2017-01-11T11:17:28.853Z,99.99
2017-01-11T11:18:37.925Z,99.76
2017-01-11T11:19:46.615Z,99.9
2017-01-11T11:20:55.305Z,99.85
2017-01-11T11:22:03.991Z,99.99
2017-01-11T11:23:12.684Z,99.99
2017-01-11T11:24:21.375Z,99.99
2017-01-11T11:25:30.065Z,99.99
2017-01-11T11:26:38.755Z,99.99
2017-01-11T11:27:47.452Z,99.8
2017-01-11T11:28:56.146Z,99.99
2017-01-11T11:30:04.868Z,99.15
2017-01-11T11:31:13.556Z,99.48
2017-01-11T11:32:22.249Z,99.48
2017-01-11T11:33:30.944Z,99.99
2017-01-11T11:34:39.635Z,99.9
2017-01-11T11:35:48.330Z,99.29
2017-01-11T11:36:57.024Z,99.62
2017-01-11T11:38:06.128Z,99.29
2017-01-11T11:39:14.808Z,99.95
2017-01-11T11:40:23.494Z,99.85
2017-01-11T11:41:32.184Z,99.71
2017-01-11T11:42:40.874Z,99.99
2017-01-11T11:43:49.565Z,99.29
2017-01-11T11:44:58.663Z,99.85
2017-01-11T11:46:07.350Z,99.48
2017-01-11T11:47:16.441Z,99.38
2017-01-11T11:48:25.131Z,99.71
2017-01-11T11:49:33.818Z,99.43
2017-01-11T11:50:42.505Z,99.52
2017-01-11T11:51:51.193Z,99.62
2017-01-11T11:52:59.881Z,99.9
2017-01-11T11:54:08.577Z,99.24
2017-01-11T11:55:17.269Z,99.24
2017-01-11T11:56:25.961Z,99.8
2017-01-11T11:57:34.646Z,99.15
2017-01-11T11:58:43.360Z,99.62
2017-01-11T11:59:52.044Z,99.33
2017-01-11T12:01:00.735Z,99.24
2017-01-11T12:02:09.427Z,99.43
2017-01-11T12:03:18.140Z,99.52
2017-01-11T12:04:26.829Z,99.33
2017-01-11T12:05:35.515Z,99.15
2017-01-11T12:06:44.209Z,99.8
2017-01-11T12:07:52.900Z,99.99
2017-01-11T12:09:01.610Z,99.99
2017-01-11T12:10:10.304Z,99.99
2017-01-11T12:11:19.017Z,99.99
2017-01-11T12:12:27.713Z,99.99
2017-01-11T12:13:36.410Z,99.99
2017-01-11T12:14:45.098Z,99.8
2017-01-11T12:15:53.792Z,99.99
2017-01-11T12:17:02.479Z,99.99
2017-01-11T12:18:11.173Z,99.99
2017-01-11T12:19:19.869Z,99.99
2017-01-11T12:20:28.556Z,99.99
2017-01-11T12:21:37.241Z,99.71
2017-01-11T12:22:45.931Z,99.01
2017-01-11T12:23:54.622Z,99.99
2017-01-11T12:25:03.312Z,99.99
2017-01-11T12:26:11.999Z,99.99
2017-01-11T12:27:20.690Z,99.99
2017-01-11T12:28:29.783Z,99.99
2017-01-11T12:29:38.480Z,99.99
2017-01-11T12:30:47.169Z,99.99
2017-01-11T12:31:55.856Z,99.99
2017-01-11T12:33:04.580Z,99.99
2017-01-11T12:34:13.271Z,99.99
2017-01-11T12:35:21.960Z,99.99
2017-01-11T12:36:30.652Z,99.99
2017-01-11T12:37:39.343Z,99.99
2017-01-11T12:38:48.044Z,99.99
2017-01-11T12:39:56.734Z,99.99
2017-01-11T12:41:05.429Z,99.99
2017-01-11T12:42:14.119Z,99.99
2017-01-11T12:43:22.812Z,99.99
2017-01-11T12:44:31.508Z,99.99
2017-01-11T12:45:40.202Z,99.99
2017-01-11T12:46:48.900Z,99.99
2017-01-11T12:47:57.591Z,99.99
2017-01-11T12:49:06.284Z,99.99
2017-01-11T12:50:14.979Z,99.99
2017-01-11T12:51:23.672Z,99.99
2017-01-11T12:52:32.363Z,99.99
2017-01-11T12:53:41.065Z,99.99
2017-01-11T12:54:49.769Z,99.99
2017-01-11T12:55:58.459Z,99.99
2017-01-11T12:57:07.161Z,99.99
2017-01-11T12:58:15.852Z,99.99
2017-01-11T12:59:24.545Z,99.99
2017-01-11T13:00:33.233Z,99.99
2017-01-11T13:01:41.925Z,99.99
2017-01-11T13:02:50.618Z,99.99
2017-01-11T13:03:59.306Z,99.99
2017-01-11T13:05:08.010Z,99.99
2017-01-11T13:06:16.699Z,99.99
2017-01-11T13:07:25.794Z,99.99
2017-01-11T13:08:34.476Z,99.99
2017-01-11T13:09:43.170Z,99.99
2017-01-11T13:10:51.856Z,99.99
2017-01-11T13:12:00.546Z,99.99
2017-01-11T13:13:09.240Z,99.99
2017-01-11T13:14:17.934Z,99.99
2017-01-11T13:15:26.638Z,99.99
2017-01-11T13:16:35.328Z,99.99
2017-01-11T13:17:44.017Z,99.99
2017-01-11T13:18:52.712Z,99.99
2017-01-11T13:20:01.406Z,99.99
2017-01-11T13:21:10.100Z,99.99
2017-01-11T13:22:18.793Z,99.99
2017-01-11T13:23:27.486Z,99.99
2017-01-11T13:24:36.192Z,99.99
2017-01-11T13:25:45.284Z,99.99
2017-01-11T13:26:54.003Z,99.99
2017-01-11T13:28:02.699Z,99.99
2017-01-11T13:29:11.417Z,99.99
2017-01-11T13:30:20.112Z,99.99
2017-01-11T13:31:28.851Z,99.99
2017-01-11T13:32:37.547Z,99.99
2017-01-11T13:33:46.236Z,99.99
2017-01-11T13:34:54.924Z,99.99
2017-01-11T13:36:03.648Z,99.99
2017-01-11T13:37:12.349Z,99.99
2017-01-11T13:38:21.040Z,99.99
2017-01-11T13:39:29.731Z,99.99
2017-01-11T13:40:38.422Z,99.99
2017-01-11T13:41:47.109Z,99.99
2017-01-11T13:42:55.804Z,99.99
2017-01-11T13:44:04.496Z,99.99
2017-01-11T13:45:13.189Z,99.99
2017-01-11T13:46:21.880Z,99.99
2017-01-11T13:47:30.580Z,99.99
2017-01-11T13:48:39.286Z,99.99
2017-01-11T13:49:47.980Z,99.99
2017-01-11T13:50:56.704Z,99.99
2017-01-11T13:52:05.791Z,99.99
2017-01-11T13:53:14.487Z,99.99
2017-01-11T13:54:23.183Z,99.99
2017-01-11T13:55:31.874Z,99.99
2017-01-11T13:56:40.564Z,99.99
2017-01-11T13:57:49.254Z,99.99
2017-01-11T13:58:57.943Z,99.99
2017-01-11T14:00:06.637Z,99.99
2017-01-11T14:01:15.326Z,99.99
2017-01-11T14:02:24.012Z,99.99
2017-01-11T14:03:32.704Z,99.99
2017-01-11T14:04:41.393Z,99.99
2017-01-11T14:05:50.085Z,99.99
2017-01-11T14:06:58.777Z,99.99
2017-01-11T14:08:07.469Z,99.99
2017-01-11T14:09:16.160Z,99.99
2017-01-11T14:10:24.849Z,99.99
2017-01-11T14:11:33.538Z,99.99
2017-01-11T14:12:42.231Z,99.99
2017-01-11T14:13:50.919Z,99.99
2017-01-11T14:14:59.619Z,99.99
2017-01-11T14:16:08.312Z,99.99
2017-01-11T14:17:17.012Z,99.99
2017-01-11T14:18:25.706Z,99.99
2017-01-11T14:19:34.402Z,99.99
2017-01-11T14:20:43.094Z,99.99
2017-01-11T14:21:51.788Z,99.99
2017-01-11T14:23:00.879Z,99.99
2017-01-11T14:24:09.569Z,99.99
2017-01-11T14:25:18.264Z,99.99
2017-01-11T14:26:26.964Z,99.99
2017-01-11T14:27:35.655Z,99.99
2017-01-11T14:28:44.349Z,99.99
2017-01-11T14:29:53.041Z,99.99
2017-01-11T14:31:01.731Z,99.99
2017-01-11T14:32:10.434Z,99.99
2017-01-11T14:33:19.123Z,99.99
2017-01-11T14:34:27.815Z,99.99
2017-01-11T14:35:36.520Z,99.99
2017-01-11T14:36:45.223Z,99.99
2017-01-11T14:37:53.920Z,99.99
2017-01-11T14:39:02.661Z,99.99
2017-01-11T14:40:11.353Z,99.99
2017-01-11T14:41:20.055Z,99.99
2017-01-11T14:42:28.748Z,99.99
2017-01-11T14:43:37.443Z,99.99
2017-01-11T14:44:46.139Z,99.99
2017-01-11T14:45:54.830Z,99.99
2017-01-11T14:47:03.520Z,99.99